sensor_id;sensor_type;location;lat;lon;timestamp;pressure;altitude;pressure_sealevel;temperature;humidity
20825;BME280;10573;50.936;6.978;2024-02-21T00:01:55;101985.66;;;11.99;57.33
20825;BME280;10573;50.936;6.978;2024-02-21T00:04:23;101975.31;;;12.03;57.51
20825;BME280;10573;50.936;6.978;2024-02-21T00:06:48;101979.69;;;12.17;56.61
20825;BME280;10573;50.936;6.978;2024-02-21T00:09:13;101978.19;;;12.13;57.09
20825;BME280;10573;50.936;6.978;2024-02-21T00:11:39;101987.09;;;11.81;57.75
20825;BME280;10573;50.936;6.978;2024-02-21T00:14:04;101990.31;;;11.86;57.93
20825;BME280;10573;50.936;6.978;2024-02-21T00:16:29;101980.56;;;12.06;57.61
20825;BME280;10573;50.936;6.978;2024-02-21T00:18:55;101975.91;;;12.18;57.23
20825;BME280;10573;50.936;6.978;2024-02-21T00:21:20;101978.91;;;12.15;57.27
20825;BME280;10573;50.936;6.978;2024-02-21T00:23:46;101971.31;;;11.84;58.12
20825;BME280;10573;50.936;6.978;2024-02-21T00:26:14;101963.50;;;12.14;57.70
20825;BME280;10573;50.936;6.978;2024-02-21T00:28:40;101963.28;;;12.05;57.64
20825;BME280;10573;50.936;6.978;2024-02-21T00:31:05;101963.00;;;12.08;57.70
20825;BME280;10573;50.936;6.978;2024-02-21T00:33:31;101953.09;;;12.19;57.45
20825;BME280;10573;50.936;6.978;2024-02-21T00:35:56;101947.88;;;12.16;57.77
20825;BME280;10573;50.936;6.978;2024-02-21T00:38:21;101950.84;;;12.24;57.54
20825;BME280;10573;50.936;6.978;2024-02-21T00:40:47;101943.66;;;12.12;57.56
20825;BME280;10573;50.936;6.978;2024-02-21T00:43:12;101944.66;;;12.11;57.67
20825;BME280;10573;50.936;6.978;2024-02-21T00:45:38;101957.03;;;11.92;58.36
20825;BME280;10573;50.936;6.978;2024-02-21T00:48:03;101950.13;;;12.11;57.92
20825;BME280;10573;50.936;6.978;2024-02-21T00:50:29;101944.38;;;12.14;57.94
20825;BME280;10573;50.936;6.978;2024-02-21T00:52:55;101937.59;;;11.97;58.10
20825;BME280;10573;50.936;6.978;2024-02-21T00:55:20;101937.22;;;12.13;58.03
20825;BME280;10573;50.936;6.978;2024-02-21T00:57:45;101930.50;;;12.17;57.98
20825;BME280;10573;50.936;6.978;2024-02-21T01:00:11;101922.03;;;12.20;58.06
20825;BME280;10573;50.936;6.978;2024-02-21T01:02:37;101919.78;;;12.25;58.14
20825;BME280;10573;50.936;6.978;2024-02-21T01:05:02;101914.91;;;12.40;57.63
20825;BME280;10573;50.936;6.978;2024-02-21T01:07:28;101933.59;;;12.12;58.12
20825;BME280;10573;50.936;6.978;2024-02-21T01:09:53;101922.31;;;12.05;58.45
20825;BME280;10573;50.936;6.978;2024-02-21T01:12:19;101916.22;;;12.13;58.47
20825;BME280;10573;50.936;6.978;2024-02-21T01:14:44;101918.06;;;12.24;58.47
20825;BME280;10573;50.936;6.978;2024-02-21T01:17:11;101916.06;;;12.26;58.42
20825;BME280;10573;50.936;6.978;2024-02-21T01:19:37;101916.66;;;12.30;57.97
20825;BME280;10573;50.936;6.978;2024-02-21T01:22:02;101919.25;;;12.31;58.18
20825;BME280;10573;50.936;6.978;2024-02-21T01:24:28;101908.59;;;12.39;58.18
20825;BME280;10573;50.936;6.978;2024-02-21T01:26:53;101905.81;;;12.51;58.27
20825;BME280;10573;50.936;6.978;2024-02-21T01:29:18;101896.63;;;12.52;57.94
20825;BME280;10573;50.936;6.978;2024-02-21T01:31:44;101905.59;;;12.42;58.10
20825;BME280;10573;50.936;6.978;2024-02-21T01:34:09;101904.03;;;12.61;57.83
20825;BME280;10573;50.936;6.978;2024-02-21T01:36:34;101897.34;;;12.54;57.92
20825;BME280;10573;50.936;6.978;2024-02-21T01:39:00;101890.66;;;12.47;57.94
20825;BME280;10573;50.936;6.978;2024-02-21T01:41:25;101898.19;;;12.22;58.20
20825;BME280;10573;50.936;6.978;2024-02-21T01:43:51;101901.38;;;12.38;58.08
20825;BME280;10573;50.936;6.978;2024-02-21T01:46:17;101886.59;;;12.41;57.90
20825;BME280;10573;50.936;6.978;2024-02-21T01:48:44;101889.97;;;12.33;58.25
20825;BME280;10573;50.936;6.978;2024-02-21T01:51:11;101881.00;;;12.31;58.20
20825;BME280;10573;50.936;6.978;2024-02-21T01:53:42;101880.69;;;12.13;58.32
20825;BME280;10573;50.936;6.978;2024-02-21T01:56:09;101867.75;;;12.27;58.29
20825;BME280;10573;50.936;6.978;2024-02-21T01:58:36;101868.66;;;12.16;58.42
20825;BME280;10573;50.936;6.978;2024-02-21T02:01:03;101869.38;;;12.18;58.58
20825;BME280;10573;50.936;6.978;2024-02-21T02:03:28;101862.97;;;11.85;59.22
20825;BME280;10573;50.936;6.978;2024-02-21T02:05:55;101863.09;;;12.06;58.99
20825;BME280;10573;50.936;6.978;2024-02-21T02:08:20;101849.81;;;11.90;59.33
20825;BME280;10573;50.936;6.978;2024-02-21T02:10:49;101849.31;;;12.07;58.90
20825;BME280;10573;50.936;6.978;2024-02-21T02:13:15;101849.91;;;12.11;58.89
20825;BME280;10573;50.936;6.978;2024-02-21T02:15:41;101832.09;;;12.28;58.45
20825;BME280;10573;50.936;6.978;2024-02-21T02:18:07;101844.88;;;11.95;59.48
20825;BME280;10573;50.936;6.978;2024-02-21T02:20:32;101836.19;;;11.56;60.30
20825;BME280;10573;50.936;6.978;2024-02-21T02:22:59;101839.13;;;11.87;59.90
20825;BME280;10573;50.936;6.978;2024-02-21T02:25:26;101829.22;;;11.86;59.76
20825;BME280;10573;50.936;6.978;2024-02-21T02:27:51;101831.19;;;12.06;59.22
20825;BME280;10573;50.936;6.978;2024-02-21T02:30:17;101815.28;;;12.12;59.08
20825;BME280;10573;50.936;6.978;2024-02-21T02:32:45;101805.84;;;12.04;59.17
20825;BME280;10573;50.936;6.978;2024-02-21T02:35:31;101802.13;;;12.05;59.27
20825;BME280;10573;50.936;6.978;2024-02-21T02:37:57;101788.47;;;11.94;59.54
20825;BME280;10573;50.936;6.978;2024-02-21T02:40:22;101790.25;;;11.95;59.69
20825;BME280;10573;50.936;6.978;2024-02-21T02:42:48;101802.25;;;12.04;59.84
20825;BME280;10573;50.936;6.978;2024-02-21T02:45:17;101797.78;;;11.91;59.98
20825;BME280;10573;50.936;6.978;2024-02-21T02:47:46;101790.53;;;11.58;60.76
20825;BME280;10573;50.936;6.978;2024-02-21T02:50:12;101789.28;;;11.62;60.75
20825;BME280;10573;50.936;6.978;2024-02-21T02:52:38;101792.25;;;11.82;60.34
20825;BME280;10573;50.936;6.978;2024-02-21T02:55:04;101790.84;;;11.87;60.20
20825;BME280;10573;50.936;6.978;2024-02-21T02:57:30;101790.72;;;12.00;60.02
20825;BME280;10573;50.936;6.978;2024-02-21T02:59:55;101788.31;;;11.63;60.38
20825;BME280;10573;50.936;6.978;2024-02-21T03:02:21;101788.31;;;11.63;60.62
20825;BME280;10573;50.936;6.978;2024-02-21T03:04:46;101782.25;;;11.92;60.12
20825;BME280;10573;50.936;6.978;2024-02-21T03:07:14;101777.94;;;12.01;60.07
20825;BME280;10573;50.936;6.978;2024-02-21T03:09:40;101778.66;;;12.03;59.85
20825;BME280;10573;50.936;6.978;2024-02-21T03:12:06;101770.56;;;12.13;59.46
20825;BME280;10573;50.936;6.978;2024-02-21T03:14:34;101768.56;;;12.15;59.55
20825;BME280;10573;50.936;6.978;2024-02-21T03:17:01;101762.59;;;12.21;59.43
20825;BME280;10573;50.936;6.978;2024-02-21T03:19:27;101747.63;;;12.04;59.69
20825;BME280;10573;50.936;6.978;2024-02-21T03:21:53;101753.44;;;12.11;59.60
20825;BME280;10573;50.936;6.978;2024-02-21T03:24:19;101744.97;;;12.14;59.55
20825;BME280;10573;50.936;6.978;2024-02-21T03:26:45;101745.78;;;11.93;59.93
20825;BME280;10573;50.936;6.978;2024-02-21T03:29:12;101745.78;;;11.93;60.04
20825;BME280;10573;50.936;6.978;2024-02-21T03:31:38;101748.75;;;12.01;59.70
20825;BME280;10573;50.936;6.978;2024-02-21T03:34:03;101737.56;;;12.04;59.69
20825;BME280;10573;50.936;6.978;2024-02-21T03:36:29;101735.56;;;12.06;59.91
20825;BME280;10573;50.936;6.978;2024-02-21T03:38:55;101731.03;;;11.96;59.95
20825;BME280;10573;50.936;6.978;2024-02-21T03:41:21;101739.22;;;11.96;59.98
20825;BME280;10573;50.936;6.978;2024-02-21T03:43:46;101733.47;;;12.10;59.29
20825;BME280;10573;50.936;6.978;2024-02-21T03:46:12;101727.56;;;11.82;60.10
20825;BME280;10573;50.936;6.978;2024-02-21T03:48:37;101723.50;;;11.77;60.31
20825;BME280;10573;50.936;6.978;2024-02-21T03:51:02;101718.56;;;12.03;59.92
20825;BME280;10573;50.936;6.978;2024-02-21T03:53:28;101728.63;;;12.02;60.09
20825;BME280;10573;50.936;6.978;2024-02-21T03:55:54;101732.00;;;11.95;60.31
20825;BME280;10573;50.936;6.978;2024-02-21T03:58:20;101710.06;;;12.17;59.46
20825;BME280;10573;50.936;6.978;2024-02-21T04:00:46;101720.72;;;12.20;59.60
20825;BME280;10573;50.936;6.978;2024-02-21T04:03:11;101728.19;;;12.18;59.44
20825;BME280;10573;50.936;6.978;2024-02-21T04:05:36;101731.38;;;12.02;59.66
20825;BME280;10573;50.936;6.978;2024-02-21T04:08:05;101725.56;;;11.84;60.11
20825;BME280;10573;50.936;6.978;2024-02-21T04:10:31;101728.56;;;11.81;60.41
20825;BME280;10573;50.936;6.978;2024-02-21T04:12:56;101735.34;;;11.54;60.92
20825;BME280;10573;50.936;6.978;2024-02-21T04:15:22;101741.50;;;11.68;60.62
20825;BME280;10573;50.936;6.978;2024-02-21T04:17:47;101730.66;;;11.78;60.46
20825;BME280;10573;50.936;6.978;2024-02-21T04:20:15;101729.09;;;11.64;60.73
20825;BME280;10573;50.936;6.978;2024-02-21T04:22:42;101734.44;;;11.65;60.67
20825;BME280;10573;50.936;6.978;2024-02-21T04:25:08;101723.72;;;11.73;60.36
20825;BME280;10573;50.936;6.978;2024-02-21T04:27:39;101722.63;;;11.76;60.32
20825;BME280;10573;50.936;6.978;2024-02-21T04:30:06;101714.28;;;11.78;60.62
20825;BME280;10573;50.936;6.978;2024-02-21T04:32:32;101712.03;;;11.83;60.06
20825;BME280;10573;50.936;6.978;2024-02-21T04:34:57;101706.84;;;11.80;60.15
20825;BME280;10573;50.936;6.978;2024-02-21T04:37:23;101703.63;;;11.74;60.14
20825;BME280;10573;50.936;6.978;2024-02-21T04:39:49;101703.97;;;11.49;60.72
20825;BME280;10573;50.936;6.978;2024-02-21T04:42:15;101705.09;;;11.46;60.66
20825;BME280;10573;50.936;6.978;2024-02-21T04:44:40;101710.13;;;11.62;60.60
20825;BME280;10573;50.936;6.978;2024-02-21T04:47:06;101705.25;;;11.22;61.55
20825;BME280;10573;50.936;6.978;2024-02-21T04:49:32;101702.63;;;11.43;60.76
20825;BME280;10573;50.936;6.978;2024-02-21T04:51:57;101717.75;;;11.47;61.15
20825;BME280;10573;50.936;6.978;2024-02-21T04:54:23;101708.66;;;11.47;60.66
20825;BME280;10573;50.936;6.978;2024-02-21T04:56:48;101706.97;;;11.34;61.06
20825;BME280;10573;50.936;6.978;2024-02-21T04:59:13;101713.19;;;11.14;61.48
20825;BME280;10573;50.936;6.978;2024-02-21T05:01:39;101702.78;;;11.19;61.61
20825;BME280;10573;50.936;6.978;2024-02-21T05:04:04;101709.94;;;11.20;61.90
20825;BME280;10573;50.936;6.978;2024-02-21T05:06:30;101703.38;;;11.34;61.37
20825;BME280;10573;50.936;6.978;2024-02-21T05:08:55;101696.03;;;11.46;60.96
20825;BME280;10573;50.936;6.978;2024-02-21T05:11:21;101704.16;;;11.68;60.38
20825;BME280;10573;50.936;6.978;2024-02-21T05:13:47;101702.44;;;11.67;60.31
20825;BME280;10573;50.936;6.978;2024-02-21T05:16:12;101690.97;;;11.73;59.94
20825;BME280;10573;50.936;6.978;2024-02-21T05:18:37;101692.94;;;11.83;59.85
20825;BME280;10573;50.936;6.978;2024-02-21T05:21:03;101693.88;;;11.93;59.69
20825;BME280;10573;50.936;6.978;2024-02-21T05:23:28;101695.94;;;11.80;59.73
20825;BME280;10573;50.936;6.978;2024-02-21T05:25:55;101698.19;;;11.74;59.92
20825;BME280;10573;50.936;6.978;2024-02-21T05:28:21;101697.13;;;11.87;59.54
20825;BME280;10573;50.936;6.978;2024-02-21T05:30:46;101691.09;;;11.83;59.51
20825;BME280;10573;50.936;6.978;2024-02-21T05:33:11;101689.41;;;11.92;59.82
20825;BME280;10573;50.936;6.978;2024-02-21T05:35:38;101679.59;;;11.68;59.84
20825;BME280;10573;50.936;6.978;2024-02-21T05:38:03;101684.91;;;11.26;61.09
20825;BME280;10573;50.936;6.978;2024-02-21T05:40:36;101666.72;;;11.59;60.57
20825;BME280;10573;50.936;6.978;2024-02-21T05:43:02;101671.91;;;11.62;60.23
20825;BME280;10573;50.936;6.978;2024-02-21T05:45:27;101666.03;;;11.46;60.35
20825;BME280;10573;50.936;6.978;2024-02-21T05:47:52;101677.75;;;11.57;60.35
20825;BME280;10573;50.936;6.978;2024-02-21T05:50:18;101669.56;;;11.57;60.18
20825;BME280;10573;50.936;6.978;2024-02-21T05:52:44;101678.00;;;11.66;60.16
20825;BME280;10573;50.936;6.978;2024-02-21T05:55:09;101677.19;;;11.42;60.66
20825;BME280;10573;50.936;6.978;2024-02-21T05:57:35;101670.19;;;11.61;60.10
20825;BME280;10573;50.936;6.978;2024-02-21T06:00:00;101672.63;;;11.64;60.17
20825;BME280;10573;50.936;6.978;2024-02-21T06:02:28;101670.59;;;11.78;59.81
20825;BME280;10573;50.936;6.978;2024-02-21T06:04:53;101671.06;;;11.94;59.52
20825;BME280;10573;50.936;6.978;2024-02-21T06:07:18;101669.47;;;11.59;59.91
20825;BME280;10573;50.936;6.978;2024-02-21T06:09:44;101674.38;;;11.65;59.85
20825;BME280;10573;50.936;6.978;2024-02-21T06:12:11;101672.88;;;11.72;59.72
20825;BME280;10573;50.936;6.978;2024-02-21T06:14:36;101666.09;;;11.88;59.40
20825;BME280;10573;50.936;6.978;2024-02-21T06:17:02;101661.22;;;11.70;59.69
20825;BME280;10573;50.936;6.978;2024-02-21T06:19:28;101649.72;;;11.88;59.37
20825;BME280;10573;50.936;6.978;2024-02-21T06:21:53;101645.50;;;11.95;59.17
20825;BME280;10573;50.936;6.978;2024-02-21T06:24:19;101643.75;;;11.94;59.01
20825;BME280;10573;50.936;6.978;2024-02-21T06:26:44;101640.81;;;11.86;59.11
20825;BME280;10573;50.936;6.978;2024-02-21T06:29:11;101635.78;;;12.02;58.87
20825;BME280;10573;50.936;6.978;2024-02-21T06:31:36;101640.13;;;11.72;59.25
20825;BME280;10573;50.936;6.978;2024-02-21T06:34:02;101627.88;;;11.88;59.31
20825;BME280;10573;50.936;6.978;2024-02-21T06:36:27;101624.25;;;11.99;59.19
20825;BME280;10573;50.936;6.978;2024-02-21T06:38:53;101625.13;;;11.99;59.13
20825;BME280;10573;50.936;6.978;2024-02-21T06:41:19;101629.13;;;11.95;59.12
20825;BME280;10573;50.936;6.978;2024-02-21T06:43:46;101623.66;;;11.95;59.04
20825;BME280;10573;50.936;6.978;2024-02-21T06:46:11;101617.19;;;11.96;59.00
20825;BME280;10573;50.936;6.978;2024-02-21T06:48:37;101618.41;;;11.92;60.03
20825;BME280;10573;50.936;6.978;2024-02-21T06:51:03;101607.56;;;12.23;59.31
20825;BME280;10573;50.936;6.978;2024-02-21T06:53:29;101602.13;;;12.02;58.95
20825;BME280;10573;50.936;6.978;2024-02-21T06:55:54;101606.25;;;11.96;59.49
20825;BME280;10573;50.936;6.978;2024-02-21T06:58:20;101597.97;;;11.86;58.95
20825;BME280;10573;50.936;6.978;2024-02-21T07:00:45;101595.59;;;11.93;58.79
20825;BME280;10573;50.936;6.978;2024-02-21T07:03:10;101601.63;;;11.75;59.09
20825;BME280;10573;50.936;6.978;2024-02-21T07:05:36;101588.66;;;11.89;59.05
20825;BME280;10573;50.936;6.978;2024-02-21T07:08:01;101593.84;;;11.92;58.87
20825;BME280;10573;50.936;6.978;2024-02-21T07:10:28;101603.81;;;11.61;59.51
20825;BME280;10573;50.936;6.978;2024-02-21T07:12:57;101591.00;;;11.72;59.10
20825;BME280;10573;50.936;6.978;2024-02-21T07:15:23;101599.09;;;11.63;59.45
20825;BME280;10573;50.936;6.978;2024-02-21T07:17:51;101601.31;;;11.36;59.94
20825;BME280;10573;50.936;6.978;2024-02-21T07:20:18;101598.53;;;11.48;59.97
20825;BME280;10573;50.936;6.978;2024-02-21T07:22:45;101585.88;;;11.47;59.88
20825;BME280;10573;50.936;6.978;2024-02-21T07:25:11;101580.41;;;11.47;60.17
20825;BME280;10573;50.936;6.978;2024-02-21T07:27:36;101596.72;;;11.37;60.31
20825;BME280;10573;50.936;6.978;2024-02-21T07:30:03;101602.50;;;11.11;61.10
20825;BME280;10573;50.936;6.978;2024-02-21T07:32:28;101595.44;;;11.08;61.20
20825;BME280;10573;50.936;6.978;2024-02-21T07:34:54;101600.28;;;11.05;61.33
20825;BME280;10573;50.936;6.978;2024-02-21T07:37:19;101596.56;;;11.17;61.19
20825;BME280;10573;50.936;6.978;2024-02-21T07:39:44;101593.13;;;11.36;60.58
20825;BME280;10573;50.936;6.978;2024-02-21T07:42:10;101581.66;;;11.54;60.29
20825;BME280;10573;50.936;6.978;2024-02-21T07:44:35;101588.31;;;11.61;60.03
20825;BME280;10573;50.936;6.978;2024-02-21T07:47:01;101580.88;;;11.63;59.98
20825;BME280;10573;50.936;6.978;2024-02-21T07:49:26;101592.66;;;11.20;60.82
20825;BME280;10573;50.936;6.978;2024-02-21T07:51:51;101574.66;;;11.61;60.06
20825;BME280;10573;50.936;6.978;2024-02-21T07:54:18;101589.44;;;11.26;60.80
20825;BME280;10573;50.936;6.978;2024-02-21T07:56:43;101568.47;;;11.59;60.25
20825;BME280;10573;50.936;6.978;2024-02-21T07:59:08;101579.72;;;11.33;60.75
20825;BME280;10573;50.936;6.978;2024-02-21T08:01:37;101579.91;;;11.53;60.12
20825;BME280;10573;50.936;6.978;2024-02-21T08:04:03;101577.41;;;11.29;60.83
20825;BME280;10573;50.936;6.978;2024-02-21T08:06:29;101572.28;;;11.35;60.61
20825;BME280;10573;50.936;6.978;2024-02-21T08:08:55;101560.09;;;11.51;60.11
20825;BME280;10573;50.936;6.978;2024-02-21T08:11:22;101557.81;;;11.56;59.86
20825;BME280;10573;50.936;6.978;2024-02-21T08:13:47;101562.47;;;11.44;60.22
20825;BME280;10573;50.936;6.978;2024-02-21T08:16:13;101560.00;;;11.62;59.75
20825;BME280;10573;50.936;6.978;2024-02-21T08:18:38;101557.66;;;11.36;60.08
20825;BME280;10573;50.936;6.978;2024-02-21T08:21:04;101538.25;;;11.51;59.53
20825;BME280;10573;50.936;6.978;2024-02-21T08:23:29;101540.50;;;11.46;59.82
20825;BME280;10573;50.936;6.978;2024-02-21T08:25:55;101542.41;;;11.34;59.66
20825;BME280;10573;50.936;6.978;2024-02-21T08:28:20;101535.38;;;11.31;60.22
20825;BME280;10573;50.936;6.978;2024-02-21T08:30:46;101530.06;;;11.51;59.48
20825;BME280;10573;50.936;6.978;2024-02-21T08:33:15;101509.63;;;11.24;60.02
20825;BME280;10573;50.936;6.978;2024-02-21T08:35:40;101514.59;;;11.40;59.39
20825;BME280;10573;50.936;6.978;2024-02-21T08:38:06;101510.94;;;11.72;58.84
20825;BME280;10573;50.936;6.978;2024-02-21T08:40:31;101510.88;;;11.41;58.89
20825;BME280;10573;50.936;6.978;2024-02-21T08:42:56;101500.09;;;11.61;58.90
20825;BME280;10573;50.936;6.978;2024-02-21T08:45:22;101493.63;;;11.83;58.06
20825;BME280;10573;50.936;6.978;2024-02-21T08:47:48;101485.09;;;11.97;57.57
20825;BME280;10573;50.936;6.978;2024-02-21T08:50:14;101494.09;;;12.09;57.30
20825;BME280;10573;50.936;6.978;2024-02-21T08:52:39;101492.88;;;12.02;57.13
20825;BME280;10573;50.936;6.978;2024-02-21T08:55:05;101479.25;;;11.81;57.81
20825;BME280;10573;50.936;6.978;2024-02-21T08:57:31;101485.66;;;11.49;58.13
20825;BME280;10573;50.936;6.978;2024-02-21T09:00:05;101483.84;;;11.80;57.68
20825;BME280;10573;50.936;6.978;2024-02-21T09:02:41;101473.50;;;11.84;56.95
20825;BME280;10573;50.936;6.978;2024-02-21T09:05:10;101466.47;;;12.12;56.52
20825;BME280;10573;50.936;6.978;2024-02-21T09:07:36;101461.41;;;11.77;56.68
20825;BME280;10573;50.936;6.978;2024-02-21T09:10:01;101444.94;;;12.19;56.15
20825;BME280;10573;50.936;6.978;2024-02-21T09:12:28;101442.59;;;12.04;55.81
20825;BME280;10573;50.936;6.978;2024-02-21T09:14:53;101431.91;;;12.32;55.20
20825;BME280;10573;50.936;6.978;2024-02-21T09:17:19;101429.19;;;12.42;54.84
20825;BME280;10573;50.936;6.978;2024-02-21T09:19:47;101425.97;;;12.27;54.75
20825;BME280;10573;50.936;6.978;2024-02-21T09:22:15;101421.56;;;12.36;54.16
20825;BME280;10573;50.936;6.978;2024-02-21T09:24:41;101427.72;;;12.28;54.78
20825;BME280;10573;50.936;6.978;2024-02-21T09:27:06;101434.94;;;11.67;55.82
20825;BME280;10573;50.936;6.978;2024-02-21T09:29:32;101432.69;;;12.03;55.27
20825;BME280;10573;50.936;6.978;2024-02-21T09:32:01;101433.53;;;11.73;55.09
20825;BME280;10573;50.936;6.978;2024-02-21T09:34:28;101423.34;;;12.06;54.95
20825;BME280;10573;50.936;6.978;2024-02-21T09:36:53;101416.25;;;12.34;53.86
20825;BME280;10573;50.936;6.978;2024-02-21T09:39:19;101410.84;;;12.13;54.27
20825;BME280;10573;50.936;6.978;2024-02-21T09:41:53;101407.34;;;12.52;53.48
20825;BME280;10573;50.936;6.978;2024-02-21T09:44:21;101394.84;;;12.49;53.60
20825;BME280;10573;50.936;6.978;2024-02-21T09:49:32;101390.06;;;12.41;53.13
20825;BME280;10573;50.936;6.978;2024-02-21T09:52:07;101380.56;;;12.55;52.91
20825;BME280;10573;50.936;6.978;2024-02-21T09:54:33;101373.97;;;12.78;52.53
20825;BME280;10573;50.936;6.978;2024-02-21T09:57:00;101368.22;;;12.81;52.31
20825;BME280;10573;50.936;6.978;2024-02-21T09:59:28;101357.25;;;13.00;51.16
20825;BME280;10573;50.936;6.978;2024-02-21T10:01:54;101365.31;;;12.53;51.83
20825;BME280;10573;50.936;6.978;2024-02-21T10:04:20;101363.31;;;12.55;51.75
20825;BME280;10573;50.936;6.978;2024-02-21T10:06:46;101371.09;;;12.79;51.76
20825;BME280;10573;50.936;6.978;2024-02-21T10:09:25;101360.69;;;13.02;50.90
20825;BME280;10573;50.936;6.978;2024-02-21T10:11:55;101374.41;;;12.73;51.61
20825;BME280;10573;50.936;6.978;2024-02-21T10:14:21;101368.78;;;12.65;51.91
20825;BME280;10573;50.936;6.978;2024-02-21T10:16:56;101364.75;;;12.59;51.56
20825;BME280;10573;50.936;6.978;2024-02-21T10:19:24;101362.44;;;12.45;51.55
20825;BME280;10573;50.936;6.978;2024-02-21T10:22:03;101367.06;;;12.54;51.28
20825;BME280;10573;50.936;6.978;2024-02-21T10:24:33;101368.34;;;12.30;52.00
20825;BME280;10573;50.936;6.978;2024-02-21T10:27:09;101354.97;;;12.47;51.35
20825;BME280;10573;50.936;6.978;2024-02-21T10:29:36;101357.88;;;12.55;51.35
20825;BME280;10573;50.936;6.978;2024-02-21T10:32:14;101351.91;;;13.08;50.89
20825;BME280;10573;50.936;6.978;2024-02-21T10:34:41;101344.25;;;13.22;49.42
20825;BME280;10573;50.936;6.978;2024-02-21T10:37:08;101337.38;;;12.98;49.85
20825;BME280;10573;50.936;6.978;2024-02-21T10:39:37;101336.56;;;12.78;50.14
20825;BME280;10573;50.936;6.978;2024-02-21T10:42:03;101334.94;;;13.05;49.82
20825;BME280;10573;50.936;6.978;2024-02-21T10:44:34;101334.63;;;13.18;49.80
20825;BME280;10573;50.936;6.978;2024-02-21T10:47:08;101327.31;;;13.08;49.71
20825;BME280;10573;50.936;6.978;2024-02-21T10:49:38;101322.94;;;13.25;49.71
20825;BME280;10573;50.936;6.978;2024-02-21T10:52:51;101318.50;;;13.62;48.88
20825;BME280;10573;50.936;6.978;2024-02-21T10:55:21;101310.97;;;13.92;48.30
20825;BME280;10573;50.936;6.978;2024-02-21T10:57:52;101298.78;;;13.86;48.31
20825;BME280;10573;50.936;6.978;2024-02-21T11:00:18;101296.41;;;13.46;48.81
20825;BME280;10573;50.936;6.978;2024-02-21T11:02:45;101295.09;;;13.40;48.62
20825;BME280;10573;50.936;6.978;2024-02-21T11:05:12;101280.88;;;13.64;48.69
20825;BME280;10573;50.936;6.978;2024-02-21T11:07:40;101257.16;;;14.19;47.67
20825;BME280;10573;50.936;6.978;2024-02-21T11:10:20;101249.84;;;14.46;46.84
20825;BME280;10573;50.936;6.978;2024-02-21T11:12:47;101248.06;;;14.00;47.51
20825;BME280;10573;50.936;6.978;2024-02-21T11:15:13;101245.03;;;14.03;47.20
20825;BME280;10573;50.936;6.978;2024-02-21T11:17:38;101221.31;;;14.12;47.20
20825;BME280;10573;50.936;6.978;2024-02-21T11:20:13;101218.41;;;14.14;47.14
20825;BME280;10573;50.936;6.978;2024-02-21T11:22:42;101226.41;;;13.89;47.55
20825;BME280;10573;50.936;6.978;2024-02-21T11:25:08;101214.44;;;13.90;47.86
20825;BME280;10573;50.936;6.978;2024-02-21T11:27:37;101192.28;;;14.46;46.80
20825;BME280;10573;50.936;6.978;2024-02-21T11:30:05;101185.50;;;14.32;46.77
20825;BME280;10573;50.936;6.978;2024-02-21T11:32:30;101169.88;;;14.50;46.61
20825;BME280;10573;50.936;6.978;2024-02-21T11:35:03;101162.75;;;14.39;46.61
20825;BME280;10573;50.936;6.978;2024-02-21T11:37:32;101161.59;;;14.42;46.58
20825;BME280;10573;50.936;6.978;2024-02-21T11:39:59;101144.28;;;14.41;46.73
20825;BME280;10573;50.936;6.978;2024-02-21T11:42:28;101133.53;;;14.48;46.83
20825;BME280;10573;50.936;6.978;2024-02-21T11:44:54;101128.72;;;14.68;46.63
20825;BME280;10573;50.936;6.978;2024-02-21T11:47:22;101125.16;;;14.23;46.69
20825;BME280;10573;50.936;6.978;2024-02-21T11:49:48;101120.69;;;14.49;46.05
20825;BME280;10573;50.936;6.978;2024-02-21T11:52:24;101128.13;;;13.86;47.43
20825;BME280;10573;50.936;6.978;2024-02-21T11:54:51;101097.97;;;14.30;46.75
20825;BME280;10573;50.936;6.978;2024-02-21T11:57:17;101094.44;;;14.46;46.34
20825;BME280;10573;50.936;6.978;2024-02-21T11:59:44;101095.03;;;14.58;46.16
20825;BME280;10573;50.936;6.978;2024-02-21T12:02:11;101086.56;;;14.69;46.24
20825;BME280;10573;50.936;6.978;2024-02-21T12:04:36;101074.91;;;14.75;45.99
20825;BME280;10573;50.936;6.978;2024-02-21T12:07:02;101076.00;;;14.83;45.59
20825;BME280;10573;50.936;6.978;2024-02-21T12:09:47;101059.06;;;14.61;45.89
20825;BME280;10573;50.936;6.978;2024-02-21T12:12:13;101055.00;;;14.65;46.00
20825;BME280;10573;50.936;6.978;2024-02-21T12:14:39;101039.59;;;14.72;45.92
20825;BME280;10573;50.936;6.978;2024-02-21T12:17:05;101043.03;;;14.40;46.79
20825;BME280;10573;50.936;6.978;2024-02-21T12:19:32;101032.09;;;14.74;46.49
20825;BME280;10573;50.936;6.978;2024-02-21T12:21:59;101022.81;;;14.75;46.34
20825;BME280;10573;50.936;6.978;2024-02-21T12:24:26;101014.78;;;14.82;46.37
20825;BME280;10573;50.936;6.978;2024-02-21T12:26:52;101003.19;;;14.62;46.10
20825;BME280;10573;50.936;6.978;2024-02-21T12:29:21;101004.59;;;14.66;46.46
20825;BME280;10573;50.936;6.978;2024-02-21T12:31:48;100989.47;;;14.54;46.35
20825;BME280;10573;50.936;6.978;2024-02-21T12:34:15;100984.47;;;14.41;46.88
20825;BME280;10573;50.936;6.978;2024-02-21T12:36:42;100980.81;;;14.32;46.97
20825;BME280;10573;50.936;6.978;2024-02-21T12:39:14;100990.72;;;14.25;47.18
20825;BME280;10573;50.936;6.978;2024-02-21T12:41:40;100983.44;;;14.07;47.33
20825;BME280;10573;50.936;6.978;2024-02-21T12:44:06;100972.41;;;14.34;46.75
20825;BME280;10573;50.936;6.978;2024-02-21T12:46:33;100943.44;;;14.31;47.29
20825;BME280;10573;50.936;6.978;2024-02-21T12:48:59;100947.84;;;14.16;47.65
20825;BME280;10573;50.936;6.978;2024-02-21T12:51:24;100921.25;;;14.42;46.93